Time;durP1;ratioP1;P1;durP2;ratioP2;P2;SDS_P1;SDS_P2;PMS_P1;PMS_P2;Temp;Humidity;BMP_temperature;BMP_pressure;BME280_temperature;BME280_humidity;BME280_pressure;Samples;Min_cycle;Max_cycle;Signal;HPM_P1;HPM_P2
2022/11/13 00:00:44;;;;;;;4.47;4.03;;;;;;;7.63;62.59;102695.16;5020787;27;97399;-82
2022/11/13 00:03:09;;;;;;;5.83;4.27;;;;;;;7.62;62.41;102683.47;5033734;27;97918;-82
2022/11/13 00:05:35;;;;;;;5.50;4.30;;;;;;;7.62;62.23;102683.47;5010466;28;97185;-83
2022/11/13 00:08:00;;;;;;;4.97;4.03;;;;;;;7.61;62.55;102692.06;5021258;27;97580;-82
2022/11/13 00:10:26;;;;;;;4.30;3.90;;;;;;;7.60;62.27;102696.03;5034896;27;96980;-82
2022/11/13 00:12:52;;;;;;;5.20;3.80;;;;;;;7.52;62.51;102701.63;5044790;27;97112;-82
2022/11/13 00:15:18;;;;;;;4.20;3.80;;;;;;;7.52;62.64;102692.63;5025960;27;97544;-82
2022/11/13 00:17:44;;;;;;;8.13;4.30;;;;;;;7.49;62.46;102691.50;5042758;27;98657;-82
2022/11/13 00:20:09;;;;;;;4.90;3.80;;;;;;;7.47;62.53;102685.69;5030630;27;99593;-82
2022/11/13 00:22:35;;;;;;;6.23;4.57;;;;;;;7.44;62.41;102686.53;5028010;27;96992;-82
2022/11/13 00:25:00;;;;;;;3.60;3.30;;;;;;;7.39;62.66;102680.75;5047036;27;97267;-82
2022/11/13 00:27:26;;;;;;;3.43;3.13;;;;;;;7.41;62.88;102678.38;5037748;27;96937;-82
2022/11/13 00:29:51;;;;;;;3.47;3.17;;;;;;;7.40;62.81;102674.88;5026041;27;96740;-82
2022/11/13 00:32:16;;;;;;;3.40;3.03;;;;;;;7.41;62.64;102672.91;5049574;27;97393;-82
2022/11/13 00:34:42;;;;;;;4.00;3.60;;;;;;;7.41;62.52;102664.69;5044334;27;96806;-82
2022/11/13 00:37:07;;;;;;;6.00;3.73;;;;;;;7.39;62.66;102670.59;5017689;27;97601;-82
2022/11/13 00:39:33;;;;;;;4.60;3.57;;;;;;;7.36;62.83;102667.94;5030352;27;98314;-82
2022/11/13 00:41:58;;;;;;;3.80;3.50;;;;;;;7.36;62.76;102665.19;5046337;27;97334;-82
2022/11/13 00:44:24;;;;;;;6.90;3.30;;;;;;;7.36;62.83;102668.69;5028951;27;96902;-82
2022/11/13 00:46:50;;;;;;;4.87;3.63;;;;;;;7.35;62.83;102661.69;5030019;27;99441;-82
2022/11/13 00:49:16;;;;;;;6.13;4.50;;;;;;;7.33;62.51;102657.81;5031288;27;98582;-82
2022/11/13 00:51:42;;;;;;;5.03;4.13;;;;;;;7.31;62.59;102646.50;5027119;27;98374;-82
2022/11/13 00:54:07;;;;;;;5.10;4.30;;;;;;;7.33;62.56;102650.38;5029658;27;97035;-82
2022/11/13 00:56:32;;;;;;;4.67;3.80;;;;;;;7.36;62.63;102646.78;5043143;27;97227;-83
2022/11/13 00:58:58;;;;;;;5.10;4.30;;;;;;;7.35;62.94;102655.44;5028370;27;97409;-82
2022/11/13 01:01:24;;;;;;;3.70;3.40;;;;;;;7.36;62.80;102655.00;5028014;27;96761;-82
2022/11/13 01:03:49;;;;;;;3.80;3.50;;;;;;;7.35;62.91;102658.94;5063222;27;97224;-82
2022/11/13 01:06:23;;;;;;;4.53;4.10;;;;;;;7.37;62.96;102648.34;5028293;27;99548;-82
2022/11/13 01:08:49;;;;;;;5.97;4.27;;;;;;;7.38;62.79;102658.09;5029576;27;97650;-83
2022/11/13 01:11:18;;;;;;;6.47;4.63;;;;;;;7.39;62.95;102648.69;5024594;27;97171;-82
2022/11/13 01:13:46;;;;;;;5.43;4.93;;;;;;;7.37;62.82;102653.81;5018302;27;97246;-82
2022/11/13 01:16:14;;;;;;;8.87;4.30;;;;;;;7.36;63.01;102649.53;5031905;27;98444;-82
2022/11/13 01:18:40;;;;;;;6.43;4.73;;;;;;;7.37;62.77;102653.03;5034904;27;97860;-82
2022/11/13 01:21:13;;;;;;;6.20;4.17;;;;;;;7.40;62.94;102650.22;5047498;27;97484;-83
2022/11/13 01:23:39;;;;;;;6.83;4.00;;;;;;;7.38;62.90;102658.09;5030545;27;97302;-82
2022/11/13 01:26:16;;;;;;;10.83;4.40;;;;;;;7.38;63.03;102658.09;5046158;27;98910;-82
2022/11/13 01:28:43;;;;;;;5.07;4.00;;;;;;;7.40;63.03;102644.00;5034087;27;97269;-82
2022/11/13 01:31:12;;;;;;;4.90;4.30;;;;;;;7.42;62.91;102664.28;5048218;27;96921;-82
2022/11/13 01:33:37;;;;;;;5.80;4.47;;;;;;;7.43;62.79;102645.88;5030505;27;97196;-82
2022/11/13 01:36:06;;;;;;;5.60;4.90;;;;;;;7.40;62.48;102652.22;5029866;27;97000;-83
2022/11/13 01:38:32;;;;;;;10.20;6.10;;;;;;;7.38;62.97;102655.34;5029875;27;97456;-82
2022/11/13 01:40:58;;;;;;;4.60;4.07;;;;;;;7.36;62.96;102655.00;5048533;27;97135;-83
2022/11/13 01:43:30;;;;;;;5.00;4.50;;;;;;;7.35;62.99;102656.19;5046720;27;96868;-83
2022/11/13 01:45:58;;;;;;;6.40;4.50;;;;;;;7.33;63.03;102633.94;5041136;27;97114;-83
2022/11/13 01:48:42;;;;;;;5.97;5.03;;;;;;;7.34;63.17;102643.69;5050067;27;96714;-82
2022/11/13 01:51:17;;;;;;;5.70;4.20;;;;;;;7.29;62.89;102627.00;5024230;27;96815;-82
2022/11/13 01:53:45;;;;;;;5.10;4.60;;;;;;;7.31;62.93;102636.34;5033696;27;96761;-82
2022/11/13 01:56:12;;;;;;;6.80;5.20;;;;;;;7.30;62.91;102640.25;5025443;27;104807;-83
2022/11/13 01:58:39;;;;;;;8.50;4.50;;;;;;;7.32;62.80;102634.34;5034776;27;97573;-82
2022/11/13 02:01:05;;;;;;;6.50;4.07;;;;;;;7.31;62.65;102630.09;5028936;27;97218;-82
2022/11/13 02:03:31;;;;;;;6.63;4.03;;;;;;;7.30;62.52;102628.53;5046426;27;96940;-82
2022/11/13 02:05:56;;;;;;;7.30;4.40;;;;;;;7.28;62.82;102620.75;5043746;27;97548;-82
2022/11/13 02:08:22;;;;;;;8.60;4.80;;;;;;;7.28;62.73;102625.44;5023741;27;97268;-82
2022/11/13 02:10:48;;;;;;;4.40;4.00;;;;;;;7.26;62.72;102628.59;5043085;27;97607;-82
2022/11/13 02:13:14;;;;;;;6.33;5.00;;;;;;;7.22;62.60;102610.72;5043058;27;96857;-82
2022/11/13 02:15:41;;;;;;;6.30;4.90;;;;;;;7.18;62.53;102604.53;5026859;27;99820;-82
2022/11/13 02:18:07;;;;;;;6.07;4.60;;;;;;;7.16;62.65;102623.34;5040271;27;96692;-83
2022/11/13 02:20:49;;;;;;;5.00;4.43;;;;;;;7.11;62.87;102605.44;5025927;27;97269;-83
2022/11/13 02:23:40;;;;;;;5.47;4.87;;;;;;;7.09;62.99;102598.84;5020408;27;97007;-82
2022/11/13 02:26:08;;;;;;;5.07;4.33;;;;;;;7.02;62.69;102601.69;5027294;27;104303;-82
2022/11/13 02:28:33;;;;;;;4.80;4.30;;;;;;;6.99;62.84;102602.56;5026434;27;97037;-82
2022/11/13 02:31:10;;;;;;;5.67;4.67;;;;;;;6.94;63.10;102611.25;5024636;27;97152;-82
2022/11/13 02:33:35;;;;;;;6.67;4.60;;;;;;;6.91;62.79;102607.38;5039195;27;96814;-82
2022/11/13 02:36:02;;;;;;;7.50;5.03;;;;;;;6.89;62.92;102615.25;5025141;27;97040;-82
2022/11/13 02:38:28;;;;;;;5.17;4.67;;;;;;;6.87;62.94;102605.91;5020823;27;96535;-82
2022/11/13 02:40:53;;;;;;;8.20;5.60;;;;;;;6.88;62.81;102604.72;5021990;27;96710;-82
2022/11/13 02:43:18;;;;;;;7.60;5.40;;;;;;;6.85;62.72;102602.81;5018493;27;100288;-82
2022/11/13 02:45:44;;;;;;;5.43;4.87;;;;;;;6.80;62.95;102613.06;5024159;27;98359;-82
2022/11/13 02:48:09;;;;;;;6.77;4.73;;;;;;;6.80;62.92;102615.78;5022998;27;97561;-82
2022/11/13 02:50:38;;;;;;;6.13;4.97;;;;;;;6.80;62.70;102601.31;5020880;27;96875;-82
2022/11/13 02:53:04;;;;;;;7.93;4.60;;;;;;;6.78;63.01;102606.44;5015941;27;97409;-82
2022/11/13 02:55:30;;;;;;;5.33;4.57;;;;;;;6.75;62.66;102605.31;5023803;27;101868;-82
2022/11/13 02:57:56;;;;;;;6.87;5.30;;;;;;;6.73;62.83;102606.91;5022173;27;97977;-82
2022/11/13 03:00:21;;;;;;;6.67;5.43;;;;;;;6.69;62.45;102600.75;5043080;27;96926;-83
2022/11/13 03:02:47;;;;;;;7.70;5.37;;;;;;;6.69;62.82;102606.22;5034742;27;97831;-82
2022/11/13 03:05:13;;;;;;;7.37;5.97;;;;;;;6.64;62.94;102610.19;5031807;27;97365;-82
2022/11/13 03:07:38;;;;;;;6.63;4.73;;;;;;;6.62;63.16;102614.53;5041859;27;98718;-82
2022/11/13 03:10:04;;;;;;;8.00;5.70;;;;;;;6.57;62.99;102629.47;5040661;27;97054;-82
2022/11/13 03:12:30;;;;;;;6.13;5.00;;;;;;;6.55;62.98;102618.16;5034551;27;96906;-82
2022/11/13 03:14:55;;;;;;;7.97;5.57;;;;;;;6.53;62.75;102615.06;5033836;27;97088;-83
2022/11/13 03:17:21;;;;;;;8.20;5.50;;;;;;;6.55;62.95;102606.47;5023966;27;97814;-82
2022/11/13 03:19:46;;;;;;;6.57;5.07;;;;;;;6.54;62.51;102607.66;5029660;27;96821;-82
2022/11/13 03:22:11;;;;;;;7.17;5.83;;;;;;;6.53;63.04;102608.84;5040528;27;97255;-82
2022/11/13 03:24:37;;;;;;;7.03;4.50;;;;;;;6.50;62.99;102610.47;5018482;27;97405;-83
2022/11/13 03:27:02;;;;;;;7.27;4.80;;;;;;;6.47;62.95;102596.81;5035856;27;96815;-83
2022/11/13 03:29:28;;;;;;;6.17;5.17;;;;;;;6.46;62.70;102598.81;5022243;27;97576;-83
2022/11/13 03:31:53;;;;;;;6.93;5.20;;;;;;;6.36;62.73;102607.16;5021312;27;96970;-82
2022/11/13 03:34:19;;;;;;;7.67;5.33;;;;;;;6.39;62.60;102603.59;5023752;27;97056;-83
2022/11/13 03:36:44;;;;;;;7.87;5.17;;;;;;;6.33;62.84;102588.88;5033131;27;97525;-83
2022/11/13 03:39:10;;;;;;;7.43;5.97;;;;;;;6.29;62.54;102585.44;5042016;27;97439;-82
2022/11/13 03:41:35;;;;;;;9.03;5.93;;;;;;;6.28;62.94;102598.31;5023180;27;96976;-82
2022/11/13 03:44:01;;;;;;;6.63;5.23;;;;;;;6.30;63.08;102595.16;5022436;27;97531;-82
2022/11/13 03:46:26;;;;;;;6.00;5.03;;;;;;;6.33;62.99;102588.88;5042702;27;96583;-82
2022/11/13 03:48:52;;;;;;;8.50;5.20;;;;;;;6.32;62.82;102581.84;5020003;27;97427;-82
2022/11/13 03:51:17;;;;;;;5.37;4.87;;;;;;;6.32;62.62;102584.59;5032557;27;97128;-83
2022/11/13 03:53:43;;;;;;;7.90;6.20;;;;;;;6.31;62.82;102596.72;5019906;27;97048;-82
2022/11/13 03:56:08;;;;;;;5.97;5.20;;;;;;;6.29;62.84;102571.75;5015176;27;99568;-82
2022/11/13 03:58:34;;;;;;;7.10;5.57;;;;;;;6.27;62.82;102572.16;5020702;27;97227;-83
2022/11/13 04:00:59;;;;;;;7.57;5.70;;;;;;;6.25;62.82;102576.50;5018938;27;97538;-82
2022/11/13 04:03:25;;;;;;;9.43;6.10;;;;;;;6.22;62.87;102582.81;5022255;27;98933;-82
2022/11/13 04:05:51;;;;;;;6.43;5.73;;;;;;;6.17;62.71;102561.41;5036776;27;98157;-85
2022/11/13 04:08:17;;;;;;;8.40;5.33;;;;;;;6.16;62.90;102568.06;5015072;27;96747;-83
2022/11/13 04:10:43;;;;;;;8.37;5.70;;;;;;;6.18;62.75;102576.63;5021269;27;97203;-83
2022/11/13 04:13:10;;;;;;;5.23;4.73;;;;;;;6.16;62.81;102568.81;5023797;27;99778;-82
2022/11/13 04:15:36;;;;;;;7.57;5.27;;;;;;;6.15;62.65;102600.09;5019696;27;97224;-81
2022/11/13 04:18:01;;;;;;;5.40;4.90;;;;;;;6.16;62.92;102557.88;5022300;27;97179;-82
2022/11/13 04:20:27;;;;;;;5.60;4.53;;;;;;;6.12;62.55;102557.19;5017197;27;97253;-82
2022/11/13 04:22:53;;;;;;;6.37;5.33;;;;;;;6.08;62.88;102561.94;5021363;27;97225;-82
2022/11/13 04:25:19;;;;;;;7.47;5.90;;;;;;;6.01;62.81;102560.09;5021301;27;101620;-82
2022/11/13 04:27:44;;;;;;;7.20;5.40;;;;;;;5.97;63.13;102567.56;4996913;27;97132;-82
2022/11/13 04:30:10;;;;;;;5.57;5.00;;;;;;;5.94;62.96;102552.00;5009635;27;97250;-82
2022/11/13 04:32:36;;;;;;;8.80;5.93;;;;;;;5.90;62.88;102558.69;5016319;27;99595;-82
2022/11/13 04:35:02;;;;;;;8.97;5.23;;;;;;;5.89;63.20;102582.53;5006823;27;98354;-82
2022/11/13 04:37:27;;;;;;;7.40;5.80;;;;;;;5.91;63.37;102561.03;5016315;27;97192;-82
2022/11/13 04:39:53;;;;;;;8.40;5.70;;;;;;;5.90;63.17;102562.22;5044280;27;97222;-82
2022/11/13 04:45:03;;;;;;;6.87;5.53;;;;;;;5.89;63.05;102555.22;5036361;27;97334;-82
2022/11/13 04:47:28;;;;;;;7.90;5.70;;;;;;;5.90;63.21;102551.28;5018824;27;97167;-82
2022/11/13 04:49:54;;;;;;;7.17;5.37;;;;;;;5.86;63.13;102547.84;5023222;27;97429;-82
2022/11/13 04:52:19;;;;;;;6.60;5.23;;;;;;;5.86;63.18;102561.50;5018731;27;97599;-82
2022/11/13 04:54:45;;;;;;;6.67;5.50;;;;;;;5.82;63.02;102549.81;5049509;27;97437;-82
2022/11/13 04:57:11;;;;;;;10.00;5.90;;;;;;;5.78;63.26;102551.06;5022428;27;97074;-81
2022/11/13 04:59:36;;;;;;;6.57;5.27;;;;;;;5.81;63.18;102550.25;5026779;27;97157;-82
2022/11/13 05:02:02;;;;;;;10.13;6.13;;;;;;;5.74;63.06;102551.13;5023512;27;97628;-82
2022/11/13 05:04:28;;;;;;;6.90;6.00;;;;;;;5.75;63.25;102543.66;5024045;27;97417;-83
2022/11/13 05:06:53;;;;;;;8.20;6.27;;;;;;;5.72;63.34;102534.34;5041937;27;96681;-82
2022/11/13 05:09:19;;;;;;;9.67;5.83;;;;;;;5.71;63.32;102546.47;5035323;27;97060;-82
2022/11/13 05:11:44;;;;;;;8.40;6.07;;;;;;;5.73;63.02;102546.81;5043026;27;97626;-82
2022/11/13 05:14:11;;;;;;;6.47;5.47;;;;;;;5.71;63.42;102532.03;5023259;27;99241;-82
2022/11/13 05:16:36;;;;;;;10.47;6.80;;;;;;;5.74;63.46;102528.50;5033243;27;97559;-82
2022/11/13 05:19:05;;;;;;;7.00;6.27;;;;;;;5.77;63.36;102533.09;5024291;27;98472;-81
2022/11/13 05:21:39;;;;;;;7.30;5.20;;;;;;;5.80;63.57;102533.06;5030734;27;97178;-82
2022/11/13 05:24:08;;;;;;;7.87;5.90;;;;;;;5.78;63.32;102529.19;5039324;27;97783;-82
2022/11/13 05:26:36;;;;;;;6.70;5.43;;;;;;;5.79;63.33;102520.59;5037412;27;96906;-82
2022/11/13 05:29:03;;;;;;;8.63;6.10;;;;;;;5.79;63.29;102530.75;5024675;27;96988;-81
2022/11/13 05:31:29;;;;;;;9.43;6.03;;;;;;;5.81;63.13;102523.69;5023657;27;97911;-82
2022/11/13 05:33:54;;;;;;;7.57;6.00;;;;;;;5.81;63.15;102526.41;5042870;27;97252;-81
2022/11/13 05:36:21;;;;;;;7.80;6.70;;;;;;;5.79;63.38;102514.34;5015552;27;96901;-81
2022/11/13 05:38:47;;;;;;;6.97;5.90;;;;;;;5.77;63.19;102514.78;5026379;27;96746;-82
2022/11/13 05:41:15;;;;;;;7.07;5.17;;;;;;;5.78;63.20;102519.06;5015773;27;97392;-82
2022/11/13 05:43:41;;;;;;;8.30;6.00;;;;;;;5.72;63.32;102539.81;5018811;27;99778;-81
2022/11/13 05:46:11;;;;;;;6.40;5.53;;;;;;;5.72;63.07;102522.66;5019690;27;97314;-82
2022/11/13 05:48:37;;;;;;;7.10;5.70;;;;;;;5.69;63.09;102515.28;5030347;27;96876;-82
2022/11/13 05:51:05;;;;;;;9.70;6.60;;;;;;;5.69;63.17;102516.06;5019071;28;100530;-81
2022/11/13 05:53:32;;;;;;;6.40;5.50;;;;;;;5.70;63.32;102520.34;5036341;27;98847;-81
2022/11/13 05:56:04;;;;;;;7.03;5.43;;;;;;;5.71;63.40;102524.63;5010266;27;97588;-82
2022/11/13 05:58:30;;;;;;;7.20;5.07;;;;;;;5.71;63.21;102518.38;5031215;27;97151;-81
2022/11/13 06:01:26;;;;;;;7.60;6.40;;;;;;;5.72;63.48;102522.66;5015500;27;98858;-81
2022/11/13 06:03:53;;;;;;;7.70;5.70;;;;;;;5.73;63.43;102521.47;5015763;27;102570;-82
2022/11/13 06:06:20;;;;;;;8.10;5.83;;;;;;;5.75;63.12;102521.81;5029789;27;97128;-82
2022/11/13 06:08:47;;;;;;;7.33;5.50;;;;;;;5.75;63.07;102519.09;5036857;27;97203;-81
2022/11/13 06:11:19;;;;;;;6.97;5.67;;;;;;;5.70;63.05;102525.03;5040971;27;98078;-81
2022/11/13 06:13:45;;;;;;;7.73;6.03;;;;;;;5.69;63.12;102510.63;5022606;27;97424;-82
2022/11/13 06:16:13;;;;;;;7.70;6.00;;;;;;;5.66;63.00;102518.84;5025389;27;96818;-82
2022/11/13 06:18:40;;;;;;;7.07;5.80;;;;;;;5.62;63.15;102488.09;5037524;27;96744;-81
2022/11/13 06:21:09;;;;;;;9.93;6.30;;;;;;;5.62;63.16;102505.25;5016267;27;98373;-82
2022/11/13 06:23:36;;;;;;;9.40;5.90;;;;;;;5.58;63.16;102496.34;5017109;27;97112;-82
2022/11/13 06:26:11;;;;;;;10.20;6.50;;;;;;;5.60;63.18;102513.09;5029564;27;100735;-81
2022/11/13 06:28:37;;;;;;;10.07;6.30;;;;;;;5.60;63.17;102504.88;5014852;27;96942;-81
2022/11/13 06:31:08;;;;;;;8.87;6.27;;;;;;;5.59;63.01;102497.13;5018112;27;97886;-81
2022/11/13 06:33:34;;;;;;;6.73;6.03;;;;;;;5.57;63.09;102497.50;4999286;27;99635;-81
2022/11/13 06:36:11;;;;;;;7.50;6.30;;;;;;;5.58;62.98;102496.34;5004010;27;97398;-81
2022/11/13 06:38:38;;;;;;;10.17;5.60;;;;;;;5.58;62.73;102498.28;5027549;27;97514;-82
2022/11/13 06:41:05;;;;;;;9.97;6.60;;;;;;;5.55;62.95;102491.69;5022948;27;99896;-82
2022/11/13 06:43:31;;;;;;;8.93;6.33;;;;;;;5.52;63.08;102492.53;5032273;27;97210;-82
2022/11/13 06:45:57;;;;;;;8.40;5.67;;;;;;;5.50;63.00;102499.59;5037666;27;96791;-81
2022/11/13 06:48:23;;;;;;;7.40;5.43;;;;;;;5.45;63.10;102517.19;5042276;27;96925;-81
2022/11/13 06:50:49;;;;;;;7.30;5.97;;;;;;;5.45;63.20;102492.63;5040241;27;97297;-82
2022/11/13 06:53:15;;;;;;;9.47;6.33;;;;;;;5.45;63.41;102491.84;5029898;27;98155;-82
2022/11/13 06:55:46;;;;;;;8.50;6.43;;;;;;;5.46;63.20;102498.88;5028463;27;96982;-82
2022/11/13 06:58:12;;;;;;;9.37;6.63;;;;;;;5.47;63.23;102498.44;5015592;27;97021;-82
2022/11/13 07:00:38;;;;;;;9.93;6.20;;;;;;;5.49;63.19;102507.00;5023843;27;97246;-82
2022/11/13 07:03:04;;;;;;;9.17;6.67;;;;;;;5.52;63.12;102514.38;5016237;27;97842;-83
2022/11/13 07:05:29;;;;;;;11.07;6.03;;;;;;;5.54;63.19;102498.34;5038842;27;96674;-82
2022/11/13 07:07:55;;;;;;;10.17;6.63;;;;;;;5.51;62.97;102492.94;5020138;27;97203;-81
2022/11/13 07:10:20;;;;;;;8.37;6.60;;;;;;;5.54;63.17;102501.09;5022447;27;98897;-83
2022/11/13 07:12:46;;;;;;;9.67;6.17;;;;;;;5.53;63.07;102494.06;5021344;27;97279;-82
2022/11/13 07:15:11;;;;;;;8.17;5.87;;;;;;;5.54;63.11;102492.91;5022824;27;96886;-82
2022/11/13 07:17:37;;;;;;;8.13;6.13;;;;;;;5.58;63.26;102501.03;5005980;27;97624;-82
2022/11/13 07:20:03;;;;;;;8.67;6.50;;;;;;;5.58;63.08;102490.88;5014220;27;97665;-81
2022/11/13 07:22:29;;;;;;;7.50;5.73;;;;;;;5.61;63.33;102500.22;5017706;27;97599;-82
2022/11/13 07:24:55;;;;;;;8.07;6.60;;;;;;;5.63;63.18;102512.28;5018964;27;96976;-82
2022/11/13 07:27:21;;;;;;;7.97;6.17;;;;;;;5.65;63.38;102504.44;5016979;27;96957;-82
2022/11/13 07:29:46;;;;;;;8.07;6.40;;;;;;;5.66;63.24;102514.16;5023387;27;99217;-82
2022/11/13 07:32:12;;;;;;;6.60;5.73;;;;;;;5.69;63.24;102518.03;5036971;27;97540;-82
2022/11/13 07:34:37;;;;;;;6.93;5.73;;;;;;;5.77;63.35;102503.84;5040777;27;96731;-82
2022/11/13 07:37:05;;;;;;;9.43;5.63;;;;;;;5.80;63.37;102508.50;5015661;27;97515;-82
2022/11/13 07:39:31;;;;;;;6.87;5.83;;;;;;;5.80;63.18;102504.97;5022471;27;99695;-82
2022/11/13 07:41:56;;;;;;;7.27;5.43;;;;;;;5.80;63.52;102500.31;5023887;27;97152;-83
2022/11/13 07:44:22;;;;;;;9.20;6.37;;;;;;;5.86;63.51;102506.09;5040481;27;97293;-82
2022/11/13 07:46:47;;;;;;;7.57;5.53;;;;;;;5.87;63.48;102499.44;5006879;28;97057;-82
2022/11/13 07:49:13;;;;;;;8.10;6.33;;;;;;;5.89;63.62;102500.59;5004166;27;98519;-82
2022/11/13 07:51:38;;;;;;;5.77;5.03;;;;;;;5.93;63.36;102495.81;5015437;27;97533;-81
2022/11/13 07:54:04;;;;;;;7.43;6.03;;;;;;;5.95;63.49;102514.53;5034810;27;97020;-82
2022/11/13 07:56:29;;;;;;;7.67;5.50;;;;;;;6.00;63.41;102512.13;5021361;27;96940;-82
2022/11/13 07:58:55;;;;;;;7.03;5.67;;;;;;;6.00;63.50;102506.66;5022368;27;99728;-82
2022/11/13 08:01:20;;;;;;;9.43;5.73;;;;;;;6.04;63.22;102507.34;5018342;27;96781;-82
2022/11/13 08:03:46;;;;;;;8.87;6.23;;;;;;;6.06;63.11;102504.19;5005266;27;96514;-83
2022/11/13 08:06:11;;;;;;;11.30;5.33;;;;;;;6.13;63.42;102500.56;5019910;27;97336;-82
2022/11/13 08:08:37;;;;;;;7.40;5.60;;;;;;;6.18;63.53;102505.56;5005296;27;98654;-82
2022/11/13 08:11:08;;;;;;;7.67;6.57;;;;;;;6.20;63.60;102506.72;5022614;27;97146;-82
2022/11/13 08:13:35;;;;;;;8.33;7.00;;;;;;;6.24;63.70;102510.16;5009881;27;96866;-83
2022/11/13 08:16:02;;;;;;;10.90;6.40;;;;;;;6.30;63.47;102494.03;5016995;27;97030;-82
2022/11/13 08:18:29;;;;;;;10.93;6.90;;;;;;;6.35;63.43;102490.81;5036308;27;97147;-82
2022/11/13 08:20:55;;;;;;;11.90;7.77;;;;;;;6.42;63.82;102488.72;5022644;27;98633;-82
2022/11/13 08:23:21;;;;;;;9.53;6.97;;;;;;;6.46;63.58;102499.59;5036653;27;96895;-81
2022/11/13 08:25:47;;;;;;;10.07;7.30;;;;;;;6.47;63.62;102490.97;5027328;27;99304;-82
2022/11/13 08:28:13;;;;;;;7.93;6.07;;;;;;;6.54;63.55;102479.91;5017392;27;97631;-82
2022/11/13 08:30:42;;;;;;;7.60;5.80;;;;;;;6.63;63.72;102487.56;5014288;27;98498;-82
2022/11/13 08:33:08;;;;;;;8.87;6.40;;;;;;;6.69;63.78;102497.59;5023176;27;97199;-82
2022/11/13 08:35:33;;;;;;;9.87;6.57;;;;;;;6.76;63.79;102496.69;5021271;27;96886;-83
2022/11/13 08:38:06;;;;;;;9.63;7.30;;;;;;;6.82;63.53;102495.78;5022695;27;98741;-82
2022/11/13 08:40:32;;;;;;;9.10;6.93;;;;;;;6.86;63.67;102484.75;5012721;27;102054;-82
2022/11/13 08:43:02;;;;;;;14.23;7.77;;;;;;;6.92;64.11;102495.97;5041431;27;97225;-82
2022/11/13 08:45:29;;;;;;;10.80;6.47;;;;;;;7.02;64.12;102481.28;5015385;27;97754;-82
2022/11/13 08:47:59;;;;;;;10.43;7.63;;;;;;;7.09;63.92;102476.47;5027379;27;98567;-83
2022/11/13 08:50:25;;;;;;;11.07;7.37;;;;;;;7.19;63.86;102494.59;5014941;27;97953;-81
2022/11/13 08:52:54;;;;;;;9.60;7.63;;;;;;;7.30;64.29;102475.22;5022501;27;96827;-81
2022/11/13 08:55:20;;;;;;;10.07;7.93;;;;;;;7.38;64.26;102482.09;5017614;27;96897;-82
2022/11/13 08:57:48;;;;;;;10.37;8.03;;;;;;;7.44;64.09;102492.13;5002765;27;99423;-82
2022/11/13 09:00:14;;;;;;;11.00;8.67;;;;;;;7.56;64.25;102487.91;5032166;27;97947;-82
2022/11/13 09:02:40;;;;;;;10.10;8.10;;;;;;;7.66;64.10;102503.34;5020512;27;98242;-82
2022/11/13 09:05:06;;;;;;;12.27;8.77;;;;;;;7.72;64.17;102500.84;5044226;27;96857;-83
2022/11/13 09:07:31;;;;;;;16.00;10.17;;;;;;;7.77;64.24;102492.91;5025108;27;98263;-82
2022/11/13 09:09:57;;;;;;;12.33;9.30;;;;;;;7.82;64.24;102478.69;5018655;27;97449;-83
2022/11/13 09:12:22;;;;;;;15.23;10.23;;;;;;;7.89;64.33;102484.00;5008142;27;98814;-82
2022/11/13 09:14:48;;;;;;;11.70;9.27;;;;;;;8.00;64.24;102500.19;5005352;28;96947;-82
2022/11/13 09:17:13;;;;;;;12.97;9.33;;;;;;;8.03;64.10;102510.28;5035748;27;97078;-83
2022/11/13 09:19:39;;;;;;;12.93;9.23;;;;;;;8.12;64.41;102494.00;5019086;27;99475;-82
2022/11/13 09:22:05;;;;;;;13.70;9.93;;;;;;;8.16;64.24;102494.69;5007126;28;96911;-82
2022/11/13 09:24:30;;;;;;;15.53;10.50;;;;;;;8.21;64.42;102488.69;5016104;27;97037;-81
2022/11/13 09:26:56;;;;;;;14.10;10.40;;;;;;;8.26;64.13;102491.69;5016645;27;98773;-81
2022/11/13 09:29:22;;;;;;;14.60;9.60;;;;;;;8.31;64.45;102482.19;5052918;27;96990;-81
2022/11/13 09:31:48;;;;;;;17.50;11.83;;;;;;;8.33;64.32;102490.75;5043982;27;96988;-82
2022/11/13 09:34:14;;;;;;;13.10;9.57;;;;;;;8.39;64.63;102478.03;5025633;27;96998;-82
2022/11/13 09:36:39;;;;;;;15.07;10.20;;;;;;;8.49;64.39;102484.47;5035423;27;96769;-82
2022/11/13 09:39:06;;;;;;;18.33;11.07;;;;;;;8.54;64.50;102498.41;5015606;27;98040;-81
2022/11/13 09:41:40;;;;;;;17.87;11.57;;;;;;;8.60;64.57;102498.66;5043521;27;96991;-81
2022/11/13 09:44:17;;;;;;;17.37;11.07;;;;;;;8.66;64.59;102489.47;5015142;27;96918;-82
2022/11/13 09:46:50;;;;;;;17.40;10.90;;;;;;;8.69;64.37;102499.56;5015131;27;98686;-82
2022/11/13 09:49:53;;;;;;;14.93;9.77;;;;;;;8.80;65.06;102486.31;5041651;27;98785;-83
2022/11/13 09:52:28;;;;;;;16.27;9.67;;;;;;;8.90;64.26;102501.72;5003212;27;97026;-82
2022/11/13 09:54:54;;;;;;;13.77;9.10;;;;;;;8.93;64.15;102495.34;5019859;27;97148;-82
2022/11/13 09:57:48;;;;;;;13.83;9.47;;;;;;;9.03;64.95;102474.28;5025388;27;98201;-84
2022/11/13 10:00:20;;;;;;;13.33;8.80;;;;;;;9.06;64.39;102485.16;5037155;27;100163;-83
2022/11/13 10:02:57;;;;;;;16.37;10.83;;;;;;;9.16;64.57;102479.78;5019117;27;99548;-83
2022/11/13 10:05:38;;;;;;;15.13;9.37;;;;;;;9.25;64.38;102483.44;5016031;27;98220;-83
2022/11/13 10:08:12;;;;;;;15.07;10.10;;;;;;;9.34;64.15;102485.53;5020607;27;98869;-83
2022/11/13 10:10:48;;;;;;;14.80;9.70;;;;;;;9.41;64.41;102471.59;5012910;27;98030;-83
2022/11/13 10:13:42;;;;;;;14.50;9.40;;;;;;;9.46;64.30;102490.25;5010989;27;97010;-82
2022/11/13 10:16:25;;;;;;;14.83;9.30;;;;;;;9.55;64.25;102473.88;5023528;27;97805;-82
2022/11/13 10:18:58;;;;;;;15.50;9.63;;;;;;;9.53;63.97;102488.06;5009407;27;97631;-83
2022/11/13 10:21:37;;;;;;;15.33;9.17;;;;;;;9.52;64.29;102475.50;5007582;27;99595;-82
2022/11/13 10:24:13;;;;;;;14.90;9.10;;;;;;;9.54;64.10;102466.84;5037463;27;96983;-84
2022/11/13 10:26:38;;;;;;;17.83;9.40;;;;;;;9.53;64.16;102485.31;5010032;27;97090;-83
2022/11/13 10:29:16;;;;;;;15.63;8.93;;;;;;;9.60;64.41;102482.34;5017940;27;97725;-84
2022/11/13 10:31:45;;;;;;;18.67;8.80;;;;;;;9.62;64.11;102477.19;5014944;27;100624;-83
2022/11/13 10:34:12;;;;;;;19.93;10.20;;;;;;;9.71;64.25;102479.25;5024808;27;96974;-82
2022/11/13 10:37:13;;;;;;;17.23;10.03;;;;;;;9.77;64.43;102470.00;5027803;27;97282;-83
2022/11/13 10:39:43;;;;;;;17.30;10.57;;;;;;;9.83;64.13;102470.97;5027046;27;101172;-83
2022/11/13 10:42:25;;;;;;;13.63;9.33;;;;;;;9.90;64.79;102471.97;5030382;27;96662;-81
2022/11/13 10:44:57;;;;;;;18.10;10.83;;;;;;;9.96;64.08;102459.22;5039239;27;97029;-82
2022/11/13 10:47:25;;;;;;;13.67;8.97;;;;;;;10.02;64.00;102462.94;5045816;27;96985;-83
2022/11/13 10:49:50;;;;;;;16.10;9.57;;;;;;;10.06;64.07;102452.56;5034688;27;96802;-83
2022/11/13 10:52:24;;;;;;;16.40;9.90;;;;;;;10.03;64.34;102443.22;5015976;27;99683;-83
2022/11/13 10:54:50;;;;;;;19.20;10.77;;;;;;;10.09;64.10;102457.94;5032236;27;97115;-82
2022/11/13 10:57:24;;;;;;;20.17;10.83;;;;;;;10.11;64.20;102443.78;5030810;27;96969;-83
2022/11/13 10:59:49;;;;;;;17.70;10.50;;;;;;;10.14;64.35;102429.91;5025361;27;96797;-83
2022/11/13 11:02:17;;;;;;;17.03;10.00;;;;;;;10.27;64.45;102430.63;5024824;27;98619;-83
2022/11/13 11:04:44;;;;;;;16.10;10.37;;;;;;;10.37;64.20;102439.72;5017637;27;97306;-82
2022/11/13 11:07:17;;;;;;;20.20;10.60;;;;;;;10.42;64.26;102436.38;5019572;27;97026;-82
2022/11/13 11:09:45;;;;;;;16.50;9.97;;;;;;;10.38;64.19;102433.00;5021079;27;100711;-83
2022/11/13 11:12:19;;;;;;;18.20;10.40;;;;;;;10.37;64.35;102423.22;5022082;27;97056;-84
2022/11/13 11:14:53;;;;;;;15.27;9.70;;;;;;;10.36;64.53;102408.69;5011266;27;98176;-82
2022/11/13 11:17:21;;;;;;;16.97;9.90;;;;;;;10.44;64.38;102418.22;5024063;27;97050;-83
2022/11/13 11:20:00;;;;;;;14.87;9.60;;;;;;;10.61;64.63;102418.03;5049514;27;97508;-83
2022/11/13 11:22:32;;;;;;;17.27;9.90;;;;;;;10.75;64.28;102414.72;5023379;27;104316;-83
2022/11/13 11:25:05;;;;;;;16.17;10.73;;;;;;;10.82;64.04;102425.47;5020259;27;99022;-81
2022/11/13 11:27:42;;;;;;;18.00;9.50;;;;;;;10.83;64.13;102405.78;5023170;27;97120;-83
2022/11/13 11:30:17;;;;;;;18.47;9.80;;;;;;;10.82;64.20;102392.44;5037955;27;103971;-82
2022/11/13 11:32:50;;;;;;;15.93;10.40;;;;;;;10.82;64.02;102392.44;5039181;27;97435;-81
2022/11/13 11:35:44;;;;;;;17.73;10.40;;;;;;;10.72;64.51;102388.13;5015775;27;96991;-83